sensor_id;sensor_type;location;lat;lon;timestamp;temperature;humidity
69595;DHT22;56800;52.142;5.364;2023-04-07T00:00:40;9.40;81.20
69595;DHT22;56800;52.142;5.364;2023-04-07T00:03:07;9.40;81.20
69595;DHT22;56800;52.142;5.364;2023-04-07T00:05:34;9.40;81.20
69595;DHT22;56800;52.142;5.364;2023-04-07T00:08:01;9.40;81.10
69595;DHT22;56800;52.142;5.364;2023-04-07T00:10:27;9.40;81.20
69595;DHT22;56800;52.142;5.364;2023-04-07T00:12:54;9.40;81.20
69595;DHT22;56800;52.142;5.364;2023-04-07T00:15:21;9.40;81.20
69595;DHT22;56800;52.142;5.364;2023-04-07T00:17:47;9.40;81.10
69595;DHT22;56800;52.142;5.364;2023-04-07T00:20:14;9.40;81.20
69595;DHT22;56800;52.142;5.364;2023-04-07T00:22:41;9.30;81.10
69595;DHT22;56800;52.142;5.364;2023-04-07T00:25:08;9.40;81.10
69595;DHT22;56800;52.142;5.364;2023-04-07T00:27:36;9.40;81.10
69595;DHT22;56800;52.142;5.364;2023-04-07T00:30:03;9.40;81.00
69595;DHT22;56800;52.142;5.364;2023-04-07T00:32:29;9.40;81.00
69595;DHT22;56800;52.142;5.364;2023-04-07T00:34:56;9.40;80.90
69595;DHT22;56800;52.142;5.364;2023-04-07T00:37:27;9.40;80.80
69595;DHT22;56800;52.142;5.364;2023-04-07T00:39:54;9.40;80.90
69595;DHT22;56800;52.142;5.364;2023-04-07T00:42:22;9.30;81.00
69595;DHT22;56800;52.142;5.364;2023-04-07T00:44:49;9.30;80.90
69595;DHT22;56800;52.142;5.364;2023-04-07T00:47:16;9.30;80.90
69595;DHT22;56800;52.142;5.364;2023-04-07T00:49:42;9.30;80.90
69595;DHT22;56800;52.142;5.364;2023-04-07T00:52:09;9.30;80.80
69595;DHT22;56800;52.142;5.364;2023-04-07T00:54:38;9.30;80.80
69595;DHT22;56800;52.142;5.364;2023-04-07T00:57:06;9.30;80.80
69595;DHT22;56800;52.142;5.364;2023-04-07T00:59:34;9.30;80.80
69595;DHT22;56800;52.142;5.364;2023-04-07T01:02:10;9.30;80.80
69595;DHT22;56800;52.142;5.364;2023-04-07T01:05:06;9.30;80.80
69595;DHT22;56800;52.142;5.364;2023-04-07T01:10:51;9.30;80.80
69595;DHT22;56800;52.142;5.364;2023-04-07T01:13:42;9.30;80.80
69595;DHT22;56800;52.142;5.364;2023-04-07T01:16:30;9.20;80.80
69595;DHT22;56800;52.142;5.364;2023-04-07T01:19:03;9.20;80.80
69595;DHT22;56800;52.142;5.364;2023-04-07T01:21:32;9.20;80.80
69595;DHT22;56800;52.142;5.364;2023-04-07T01:27:09;9.20;80.80
69595;DHT22;56800;52.142;5.364;2023-04-07T01:29:41;9.20;80.80
69595;DHT22;56800;52.142;5.364;2023-04-07T01:32:13;9.20;80.80
69595;DHT22;56800;52.142;5.364;2023-04-07T01:34:41;9.30;80.80
69595;DHT22;56800;52.142;5.364;2023-04-07T01:37:08;9.20;80.80
69595;DHT22;56800;52.142;5.364;2023-04-07T01:39:37;9.20;80.90
69595;DHT22;56800;52.142;5.364;2023-04-07T01:42:05;9.30;80.90
69595;DHT22;56800;52.142;5.364;2023-04-07T01:44:33;9.30;80.90
69595;DHT22;56800;52.142;5.364;2023-04-07T01:47:01;9.20;80.90
69595;DHT22;56800;52.142;5.364;2023-04-07T01:49:29;9.20;80.90
69595;DHT22;56800;52.142;5.364;2023-04-07T01:51:57;9.30;80.90
69595;DHT22;56800;52.142;5.364;2023-04-07T01:54:25;9.30;80.90
69595;DHT22;56800;52.142;5.364;2023-04-07T01:56:52;9.30;80.90
69595;DHT22;56800;52.142;5.364;2023-04-07T01:59:19;9.20;80.90
69595;DHT22;56800;52.142;5.364;2023-04-07T02:01:46;9.20;80.90
69595;DHT22;56800;52.142;5.364;2023-04-07T02:04:21;9.20;80.90
69595;DHT22;56800;52.142;5.364;2023-04-07T02:07:00;9.30;81.00
69595;DHT22;56800;52.142;5.364;2023-04-07T02:09:30;9.30;81.00
69595;DHT22;56800;52.142;5.364;2023-04-07T02:11:59;9.20;80.90
69595;DHT22;56800;52.142;5.364;2023-04-07T02:14:27;9.20;80.80
69595;DHT22;56800;52.142;5.364;2023-04-07T02:16:55;9.30;80.80
69595;DHT22;56800;52.142;5.364;2023-04-07T02:19:22;9.20;80.80
69595;DHT22;56800;52.142;5.364;2023-04-07T02:21:50;9.20;80.90
69595;DHT22;56800;52.142;5.364;2023-04-07T02:24:21;9.20;80.90
69595;DHT22;56800;52.142;5.364;2023-04-07T02:26:48;9.20;80.90
69595;DHT22;56800;52.142;5.364;2023-04-07T02:29:14;9.20;81.00
69595;DHT22;56800;52.142;5.364;2023-04-07T02:31:41;9.20;81.00
69595;DHT22;56800;52.142;5.364;2023-04-07T02:34:08;9.20;81.00
69595;DHT22;56800;52.142;5.364;2023-04-07T02:36:35;9.30;81.00
69595;DHT22;56800;52.142;5.364;2023-04-07T02:39:02;9.20;81.00
69595;DHT22;56800;52.142;5.364;2023-04-07T02:41:29;9.20;81.10
69595;DHT22;56800;52.142;5.364;2023-04-07T02:43:55;9.20;81.10
69595;DHT22;56800;52.142;5.364;2023-04-07T02:46:23;9.20;81.10
69595;DHT22;56800;52.142;5.364;2023-04-07T02:48:49;9.20;81.00
69595;DHT22;56800;52.142;5.364;2023-04-07T02:51:17;9.20;81.00
69595;DHT22;56800;52.142;5.364;2023-04-07T02:53:43;9.20;81.10
69595;DHT22;56800;52.142;5.364;2023-04-07T02:56:10;9.20;81.00
69595;DHT22;56800;52.142;5.364;2023-04-07T02:58:37;9.20;81.00
69595;DHT22;56800;52.142;5.364;2023-04-07T03:01:04;9.20;80.90
69595;DHT22;56800;52.142;5.364;2023-04-07T03:03:31;9.20;81.00
69595;DHT22;56800;52.142;5.364;2023-04-07T03:05:58;9.20;81.00
69595;DHT22;56800;52.142;5.364;2023-04-07T03:08:25;9.20;81.10
69595;DHT22;56800;52.142;5.364;2023-04-07T03:10:52;9.20;81.10
69595;DHT22;56800;52.142;5.364;2023-04-07T03:13:20;9.20;81.10
69595;DHT22;56800;52.142;5.364;2023-04-07T03:15:46;9.20;81.00
69595;DHT22;56800;52.142;5.364;2023-04-07T03:18:13;9.30;81.00
69595;DHT22;56800;52.142;5.364;2023-04-07T03:20:40;9.20;80.90
69595;DHT22;56800;52.142;5.364;2023-04-07T03:23:07;9.30;81.00
69595;DHT22;56800;52.142;5.364;2023-04-07T03:25:34;9.20;80.90
69595;DHT22;56800;52.142;5.364;2023-04-07T03:28:01;9.30;80.90
69595;DHT22;56800;52.142;5.364;2023-04-07T03:30:27;9.20;80.90
69595;DHT22;56800;52.142;5.364;2023-04-07T03:32:54;9.20;80.80
69595;DHT22;56800;52.142;5.364;2023-04-07T03:35:21;9.20;80.80
69595;DHT22;56800;52.142;5.364;2023-04-07T03:37:47;9.20;80.90
69595;DHT22;56800;52.142;5.364;2023-04-07T03:40:14;9.20;80.90
69595;DHT22;56800;52.142;5.364;2023-04-07T03:42:42;9.20;81.00
69595;DHT22;56800;52.142;5.364;2023-04-07T03:45:08;9.20;80.90
69595;DHT22;56800;52.142;5.364;2023-04-07T03:47:35;9.30;81.00
69595;DHT22;56800;52.142;5.364;2023-04-07T03:50:03;9.30;80.90
69595;DHT22;56800;52.142;5.364;2023-04-07T03:52:29;9.30;80.80
69595;DHT22;56800;52.142;5.364;2023-04-07T03:54:56;9.20;80.80
69595;DHT22;56800;52.142;5.364;2023-04-07T03:57:22;9.20;80.80
69595;DHT22;56800;52.142;5.364;2023-04-07T03:59:49;9.20;80.80
69595;DHT22;56800;52.142;5.364;2023-04-07T04:02:17;9.20;80.70
69595;DHT22;56800;52.142;5.364;2023-04-07T04:04:44;9.20;80.70
69595;DHT22;56800;52.142;5.364;2023-04-07T04:07:11;9.30;80.80
69595;DHT22;56800;52.142;5.364;2023-04-07T04:09:37;9.30;80.70
69595;DHT22;56800;52.142;5.364;2023-04-07T04:12:04;9.20;80.70
69595;DHT22;56800;52.142;5.364;2023-04-07T04:14:31;9.30;80.70
69595;DHT22;56800;52.142;5.364;2023-04-07T04:16:58;9.30;80.60
69595;DHT22;56800;52.142;5.364;2023-04-07T04:19:24;9.20;80.60
69595;DHT22;56800;52.142;5.364;2023-04-07T04:21:51;9.20;80.70
69595;DHT22;56800;52.142;5.364;2023-04-07T04:24:18;9.20;80.70
69595;DHT22;56800;52.142;5.364;2023-04-07T04:26:45;9.20;80.80
69595;DHT22;56800;52.142;5.364;2023-04-07T04:29:11;9.20;80.80
69595;DHT22;56800;52.142;5.364;2023-04-07T04:31:38;9.20;80.80
69595;DHT22;56800;52.142;5.364;2023-04-07T04:34:04;9.20;80.80
69595;DHT22;56800;52.142;5.364;2023-04-07T04:36:31;9.20;80.80
69595;DHT22;56800;52.142;5.364;2023-04-07T04:38:58;9.20;80.90
69595;DHT22;56800;52.142;5.364;2023-04-07T04:41:24;9.20;80.90
69595;DHT22;56800;52.142;5.364;2023-04-07T04:43:51;9.20;80.90
69595;DHT22;56800;52.142;5.364;2023-04-07T04:46:18;9.20;80.90
69595;DHT22;56800;52.142;5.364;2023-04-07T04:48:44;9.20;80.90
69595;DHT22;56800;52.142;5.364;2023-04-07T04:51:11;9.20;80.90
69595;DHT22;56800;52.142;5.364;2023-04-07T04:53:37;9.20;80.90
69595;DHT22;56800;52.142;5.364;2023-04-07T04:56:05;9.20;81.00
69595;DHT22;56800;52.142;5.364;2023-04-07T04:58:31;9.20;80.90
69595;DHT22;56800;52.142;5.364;2023-04-07T05:00:58;9.20;80.90
69595;DHT22;56800;52.142;5.364;2023-04-07T05:03:27;9.20;80.90
69595;DHT22;56800;52.142;5.364;2023-04-07T05:05:54;9.20;80.90
69595;DHT22;56800;52.142;5.364;2023-04-07T05:08:21;9.20;80.90
69595;DHT22;56800;52.142;5.364;2023-04-07T05:10:48;9.20;80.80
69595;DHT22;56800;52.142;5.364;2023-04-07T05:13:15;9.20;80.80
69595;DHT22;56800;52.142;5.364;2023-04-07T05:15:41;9.30;80.90
69595;DHT22;56800;52.142;5.364;2023-04-07T05:18:08;9.30;80.90
69595;DHT22;56800;52.142;5.364;2023-04-07T05:20:35;9.20;80.80
69595;DHT22;56800;52.142;5.364;2023-04-07T05:23:01;9.20;81.50
69595;DHT22;56800;52.142;5.364;2023-04-07T05:25:28;9.30;80.70
69595;DHT22;56800;52.142;5.364;2023-04-07T05:27:56;9.30;80.70
69595;DHT22;56800;52.142;5.364;2023-04-07T05:30:23;9.30;80.70
69595;DHT22;56800;52.142;5.364;2023-04-07T05:32:50;9.30;80.70
69595;DHT22;56800;52.142;5.364;2023-04-07T05:35:17;9.30;80.70
69595;DHT22;56800;52.142;5.364;2023-04-07T05:37:44;9.30;80.70
69595;DHT22;56800;52.142;5.364;2023-04-07T05:40:11;9.30;80.70
69595;DHT22;56800;52.142;5.364;2023-04-07T05:42:38;9.30;80.70
69595;DHT22;56800;52.142;5.364;2023-04-07T05:45:05;9.30;80.70
69595;DHT22;56800;52.142;5.364;2023-04-07T05:47:32;9.30;80.70
69595;DHT22;56800;52.142;5.364;2023-04-07T05:49:58;9.30;80.70
69595;DHT22;56800;52.142;5.364;2023-04-07T05:52:26;9.30;80.70
69595;DHT22;56800;52.142;5.364;2023-04-07T05:54:53;9.30;80.60
69595;DHT22;56800;52.142;5.364;2023-04-07T05:57:20;9.30;80.60
69595;DHT22;56800;52.142;5.364;2023-04-07T05:59:46;9.30;80.60
69595;DHT22;56800;52.142;5.364;2023-04-07T06:02:13;9.20;80.60
69595;DHT22;56800;52.142;5.364;2023-04-07T06:04:40;9.20;80.60
69595;DHT22;56800;52.142;5.364;2023-04-07T06:07:07;9.20;80.60
69595;DHT22;56800;52.142;5.364;2023-04-07T06:09:33;9.20;80.60
69595;DHT22;56800;52.142;5.364;2023-04-07T06:12:00;9.20;80.60
69595;DHT22;56800;52.142;5.364;2023-04-07T06:14:27;9.20;80.60
69595;DHT22;56800;52.142;5.364;2023-04-07T06:16:53;9.20;80.60
69595;DHT22;56800;52.142;5.364;2023-04-07T06:19:20;9.20;80.60
69595;DHT22;56800;52.142;5.364;2023-04-07T06:21:47;9.20;80.60
69595;DHT22;56800;52.142;5.364;2023-04-07T06:24:13;9.20;80.60
69595;DHT22;56800;52.142;5.364;2023-04-07T06:26:40;9.20;80.60
69595;DHT22;56800;52.142;5.364;2023-04-07T06:29:06;9.20;80.70
69595;DHT22;56800;52.142;5.364;2023-04-07T06:31:33;9.20;80.70
69595;DHT22;56800;52.142;5.364;2023-04-07T06:34:00;9.20;80.80
69595;DHT22;56800;52.142;5.364;2023-04-07T06:36:27;9.30;80.80
69595;DHT22;56800;52.142;5.364;2023-04-07T06:38:54;9.30;80.80
69595;DHT22;56800;52.142;5.364;2023-04-07T06:41:21;9.30;80.80
69595;DHT22;56800;52.142;5.364;2023-04-07T06:43:48;9.30;80.80
69595;DHT22;56800;52.142;5.364;2023-04-07T06:46:17;9.30;80.80
69595;DHT22;56800;52.142;5.364;2023-04-07T06:48:44;9.30;80.80
69595;DHT22;56800;52.142;5.364;2023-04-07T06:51:11;9.30;80.70
69595;DHT22;56800;52.142;5.364;2023-04-07T06:53:38;9.30;80.80
69595;DHT22;56800;52.142;5.364;2023-04-07T06:56:10;9.30;80.80
69595;DHT22;56800;52.142;5.364;2023-04-07T06:58:37;9.40;80.90
69595;DHT22;56800;52.142;5.364;2023-04-07T07:01:04;9.30;80.90
69595;DHT22;56800;52.142;5.364;2023-04-07T07:03:32;9.40;81.00
69595;DHT22;56800;52.142;5.364;2023-04-07T07:05:59;9.40;81.10
69595;DHT22;56800;52.142;5.364;2023-04-07T07:08:27;9.50;81.20
69595;DHT22;56800;52.142;5.364;2023-04-07T07:10:54;9.50;81.20
69595;DHT22;56800;52.142;5.364;2023-04-07T07:13:25;9.60;81.20
69595;DHT22;56800;52.142;5.364;2023-04-07T07:15:52;9.60;81.10
69595;DHT22;56800;52.142;5.364;2023-04-07T07:18:19;9.60;81.00
69595;DHT22;56800;52.142;5.364;2023-04-07T07:20:46;9.70;81.00
69595;DHT22;56800;52.142;5.364;2023-04-07T07:23:12;9.70;81.00
69595;DHT22;56800;52.142;5.364;2023-04-07T07:25:39;9.70;81.00
69595;DHT22;56800;52.142;5.364;2023-04-07T07:28:06;9.70;81.00
69595;DHT22;56800;52.142;5.364;2023-04-07T07:30:34;9.70;81.10
69595;DHT22;56800;52.142;5.364;2023-04-07T07:33:01;9.70;81.00
69595;DHT22;56800;52.142;5.364;2023-04-07T07:35:28;9.70;81.10
69595;DHT22;56800;52.142;5.364;2023-04-07T07:37:54;9.70;81.10
69595;DHT22;56800;52.142;5.364;2023-04-07T07:40:21;9.80;81.20
69595;DHT22;56800;52.142;5.364;2023-04-07T07:42:47;9.80;81.20
69595;DHT22;56800;52.142;5.364;2023-04-07T07:45:14;9.80;81.10
69595;DHT22;56800;52.142;5.364;2023-04-07T07:47:43;9.90;81.10
69595;DHT22;56800;52.142;5.364;2023-04-07T07:50:09;9.90;81.00
69595;DHT22;56800;52.142;5.364;2023-04-07T07:52:36;9.90;81.00
69595;DHT22;56800;52.142;5.364;2023-04-07T07:55:03;9.90;80.90
69595;DHT22;56800;52.142;5.364;2023-04-07T07:57:30;9.90;80.80
69595;DHT22;56800;52.142;5.364;2023-04-07T07:59:57;9.90;80.80
69595;DHT22;56800;52.142;5.364;2023-04-07T08:02:24;9.90;80.90
69595;DHT22;56800;52.142;5.364;2023-04-07T08:04:56;9.90;80.80
69595;DHT22;56800;52.142;5.364;2023-04-07T08:07:23;9.90;80.80
69595;DHT22;56800;52.142;5.364;2023-04-07T08:09:50;9.90;80.90
69595;DHT22;56800;52.142;5.364;2023-04-07T08:12:17;9.90;80.90
69595;DHT22;56800;52.142;5.364;2023-04-07T08:14:43;9.90;80.90
69595;DHT22;56800;52.142;5.364;2023-04-07T08:17:10;9.90;80.80
69595;DHT22;56800;52.142;5.364;2023-04-07T08:19:38;10.00;80.90
69595;DHT22;56800;52.142;5.364;2023-04-07T08:22:04;10.00;80.90
69595;DHT22;56800;52.142;5.364;2023-04-07T08:24:31;10.10;80.90
69595;DHT22;56800;52.142;5.364;2023-04-07T08:26:58;10.10;80.70
69595;DHT22;56800;52.142;5.364;2023-04-07T08:29:24;10.10;80.50
69595;DHT22;56800;52.142;5.364;2023-04-07T08:31:51;10.20;80.40
69595;DHT22;56800;52.142;5.364;2023-04-07T08:34:18;10.20;80.10
69595;DHT22;56800;52.142;5.364;2023-04-07T08:36:46;10.20;80.10
69595;DHT22;56800;52.142;5.364;2023-04-07T08:39:13;10.20;80.10
69595;DHT22;56800;52.142;5.364;2023-04-07T08:41:40;10.20;80.10
69595;DHT22;56800;52.142;5.364;2023-04-07T08:44:08;10.30;80.00
69595;DHT22;56800;52.142;5.364;2023-04-07T08:46:39;10.30;80.10
69595;DHT22;56800;52.142;5.364;2023-04-07T08:49:10;10.30;79.90
69595;DHT22;56800;52.142;5.364;2023-04-07T08:51:45;10.30;79.90
69595;DHT22;56800;52.142;5.364;2023-04-07T08:54:16;10.40;79.90
69595;DHT22;56800;52.142;5.364;2023-04-07T08:56:44;10.40;79.70
69595;DHT22;56800;52.142;5.364;2023-04-07T08:59:13;10.40;79.50
69595;DHT22;56800;52.142;5.364;2023-04-07T09:01:40;10.40;79.40
69595;DHT22;56800;52.142;5.364;2023-04-07T09:04:09;10.40;79.40
69595;DHT22;56800;52.142;5.364;2023-04-07T09:06:36;10.40;79.40
69595;DHT22;56800;52.142;5.364;2023-04-07T09:09:04;10.40;79.50
69595;DHT22;56800;52.142;5.364;2023-04-07T09:11:36;10.50;79.40
69595;DHT22;56800;52.142;5.364;2023-04-07T09:14:03;10.60;79.70
69595;DHT22;56800;52.142;5.364;2023-04-07T09:16:29;10.60;79.50
69595;DHT22;56800;52.142;5.364;2023-04-07T09:18:57;10.70;79.50
69595;DHT22;56800;52.142;5.364;2023-04-07T09:21:24;10.70;79.50
69595;DHT22;56800;52.142;5.364;2023-04-07T09:23:51;10.70;79.20
69595;DHT22;56800;52.142;5.364;2023-04-07T09:28:53;10.80;79.00
69595;DHT22;56800;52.142;5.364;2023-04-07T09:31:22;10.80;78.90
69595;DHT22;56800;52.142;5.364;2023-04-07T09:33:51;10.90;79.00
69595;DHT22;56800;52.142;5.364;2023-04-07T09:36:18;11.00;78.80
69595;DHT22;56800;52.142;5.364;2023-04-07T09:38:45;11.00;78.70
69595;DHT22;56800;52.142;5.364;2023-04-07T09:41:14;11.10;78.40
69595;DHT22;56800;52.142;5.364;2023-04-07T09:43:43;11.10;78.00
69595;DHT22;56800;52.142;5.364;2023-04-07T09:46:15;11.10;77.90
69595;DHT22;56800;52.142;5.364;2023-04-07T09:48:44;11.10;77.80
69595;DHT22;56800;52.142;5.364;2023-04-07T09:51:13;11.10;77.80
69595;DHT22;56800;52.142;5.364;2023-04-07T09:56:09;11.10;77.70
69595;DHT22;56800;52.142;5.364;2023-04-07T09:58:39;11.10;77.60
69595;DHT22;56800;52.142;5.364;2023-04-07T10:01:10;11.10;77.40
69595;DHT22;56800;52.142;5.364;2023-04-07T10:03:37;11.10;77.20
69595;DHT22;56800;52.142;5.364;2023-04-07T10:06:05;11.10;77.20
69595;DHT22;56800;52.142;5.364;2023-04-07T10:08:34;11.10;77.10
69595;DHT22;56800;52.142;5.364;2023-04-07T10:11:03;11.10;76.80
69595;DHT22;56800;52.142;5.364;2023-04-07T10:13:36;11.10;76.80
69595;DHT22;56800;52.142;5.364;2023-04-07T10:16:05;11.10;76.80
69595;DHT22;56800;52.142;5.364;2023-04-07T10:18:34;11.10;76.60
69595;DHT22;56800;52.142;5.364;2023-04-07T10:21:03;11.10;76.60
69595;DHT22;56800;52.142;5.364;2023-04-07T10:26:37;11.20;76.60
69595;DHT22;56800;52.142;5.364;2023-04-07T10:29:10;11.20;76.40
69595;DHT22;56800;52.142;5.364;2023-04-07T10:31:37;11.20;76.50
69595;DHT22;56800;52.142;5.364;2023-04-07T10:34:05;11.20;76.50
69595;DHT22;56800;52.142;5.364;2023-04-07T10:36:31;11.30;76.50
69595;DHT22;56800;52.142;5.364;2023-04-07T10:41:39;11.30;76.10
69595;DHT22;56800;52.142;5.364;2023-04-07T10:44:07;11.40;76.10
69595;DHT22;56800;52.142;5.364;2023-04-07T10:49:17;11.30;75.60
69595;DHT22;56800;52.142;5.364;2023-04-07T10:54:38;11.30;75.70
69595;DHT22;56800;52.142;5.364;2023-04-07T10:57:07;11.30;75.70
69595;DHT22;56800;52.142;5.364;2023-04-07T10:59:40;11.20;75.50
69595;DHT22;56800;52.142;5.364;2023-04-07T11:04:44;11.20;75.50
69595;DHT22;56800;52.142;5.364;2023-04-07T11:07:13;11.20;75.50
69595;DHT22;56800;52.142;5.364;2023-04-07T11:09:40;11.20;75.40
69595;DHT22;56800;52.142;5.364;2023-04-07T11:12:07;11.10;75.30
69595;DHT22;56800;52.142;5.364;2023-04-07T11:14:34;11.10;75.20
69595;DHT22;56800;52.142;5.364;2023-04-07T11:17:03;11.10;75.30
69595;DHT22;56800;52.142;5.364;2023-04-07T11:19:30;11.10;75.40
69595;DHT22;56800;52.142;5.364;2023-04-07T11:22:25;11.10;75.50
69595;DHT22;56800;52.142;5.364;2023-04-07T11:24:55;11.10;75.60
69595;DHT22;56800;52.142;5.364;2023-04-07T11:27:22;11.10;75.60
69595;DHT22;56800;52.142;5.364;2023-04-07T11:29:49;11.10;75.40
69595;DHT22;56800;52.142;5.364;2023-04-07T11:32:22;11.10;75.40
69595;DHT22;56800;52.142;5.364;2023-04-07T11:34:51;11.10;75.50
69595;DHT22;56800;52.142;5.364;2023-04-07T11:37:23;11.10;75.50
69595;DHT22;56800;52.142;5.364;2023-04-07T11:39:54;11.10;75.30
69595;DHT22;56800;52.142;5.364;2023-04-07T11:42:31;11.10;75.30
69595;DHT22;56800;52.142;5.364;2023-04-07T11:44:58;11.20;75.20
69595;DHT22;56800;52.142;5.364;2023-04-07T11:47:34;11.20;75.00
69595;DHT22;56800;52.142;5.364;2023-04-07T11:50:01;11.20;75.00
69595;DHT22;56800;52.142;5.364;2023-04-07T11:52:28;11.20;74.90
69595;DHT22;56800;52.142;5.364;2023-04-07T11:54:55;11.20;74.70
69595;DHT22;56800;52.142;5.364;2023-04-07T11:57:25;11.20;74.50
69595;DHT22;56800;52.142;5.364;2023-04-07T12:00:12;11.20;74.40
69595;DHT22;56800;52.142;5.364;2023-04-07T12:02:39;11.10;74.40
69595;DHT22;56800;52.142;5.364;2023-04-07T12:05:07;11.10;74.40
69595;DHT22;56800;52.142;5.364;2023-04-07T12:07:37;11.10;74.40
69595;DHT22;56800;52.142;5.364;2023-04-07T12:10:23;11.20;74.60
69595;DHT22;56800;52.142;5.364;2023-04-07T12:12:51;11.20;74.70
69595;DHT22;56800;52.142;5.364;2023-04-07T12:15:19;11.20;74.60
69595;DHT22;56800;52.142;5.364;2023-04-07T12:17:47;11.30;74.70
69595;DHT22;56800;52.142;5.364;2023-04-07T12:20:14;11.30;74.50
69595;DHT22;56800;52.142;5.364;2023-04-07T12:22:41;11.40;74.50
69595;DHT22;56800;52.142;5.364;2023-04-07T12:25:08;11.40;74.40
69595;DHT22;56800;52.142;5.364;2023-04-07T12:27:35;11.50;74.20
69595;DHT22;56800;52.142;5.364;2023-04-07T12:30:10;11.60;74.10
69595;DHT22;56800;52.142;5.364;2023-04-07T12:32:38;11.70;73.80
69595;DHT22;56800;52.142;5.364;2023-04-07T12:35:05;11.60;73.60
69595;DHT22;56800;52.142;5.364;2023-04-07T12:37:32;11.60;73.50
69595;DHT22;56800;52.142;5.364;2023-04-07T12:39:59;11.60;73.50
69595;DHT22;56800;52.142;5.364;2023-04-07T12:42:26;11.60;73.40
69595;DHT22;56800;52.142;5.364;2023-04-07T12:44:53;11.70;73.30
69595;DHT22;56800;52.142;5.364;2023-04-07T12:47:20;11.70;73.40
69595;DHT22;56800;52.142;5.364;2023-04-07T12:49:47;11.70;73.50
69595;DHT22;56800;52.142;5.364;2023-04-07T12:52:15;11.70;73.20
69595;DHT22;56800;52.142;5.364;2023-04-07T12:54:42;11.70;73.00
69595;DHT22;56800;52.142;5.364;2023-04-07T12:57:10;11.60;73.00
69595;DHT22;56800;52.142;5.364;2023-04-07T12:59:37;11.60;73.20
69595;DHT22;56800;52.142;5.364;2023-04-07T13:02:04;11.60;73.20
69595;DHT22;56800;52.142;5.364;2023-04-07T13:04:31;11.70;73.20
69595;DHT22;56800;52.142;5.364;2023-04-07T13:06:58;11.70;73.00
69595;DHT22;56800;52.142;5.364;2023-04-07T13:09:25;11.70;72.90
69595;DHT22;56800;52.142;5.364;2023-04-07T13:11:51;11.60;72.80
69595;DHT22;56800;52.142;5.364;2023-04-07T13:14:18;11.60;72.70
69595;DHT22;56800;52.142;5.364;2023-04-07T13:16:45;11.60;72.70
69595;DHT22;56800;52.142;5.364;2023-04-07T13:19:11;11.60;72.70
69595;DHT22;56800;52.142;5.364;2023-04-07T13:21:38;11.60;72.80
69595;DHT22;56800;52.142;5.364;2023-04-07T13:24:08;11.60;72.70
69595;DHT22;56800;52.142;5.364;2023-04-07T13:26:34;11.60;72.70
69595;DHT22;56800;52.142;5.364;2023-04-07T13:29:01;11.50;72.70
69595;DHT22;56800;52.142;5.364;2023-04-07T13:31:28;11.50;72.80
69595;DHT22;56800;52.142;5.364;2023-04-07T13:33:55;11.50;72.80
69595;DHT22;56800;52.142;5.364;2023-04-07T13:36:23;11.50;72.80
69595;DHT22;56800;52.142;5.364;2023-04-07T13:38:50;11.50;72.80
69595;DHT22;56800;52.142;5.364;2023-04-07T13:41:16;11.50;72.60
69595;DHT22;56800;52.142;5.364;2023-04-07T13:43:43;11.50;72.80
69595;DHT22;56800;52.142;5.364;2023-04-07T13:46:12;11.50;72.90
69595;DHT22;56800;52.142;5.364;2023-04-07T13:48:53;11.50;73.00
69595;DHT22;56800;52.142;5.364;2023-04-07T13:51:20;11.40;72.90
69595;DHT22;56800;52.142;5.364;2023-04-07T13:53:47;11.50;72.90
69595;DHT22;56800;52.142;5.364;2023-04-07T13:56:14;11.40;72.90
69595;DHT22;56800;52.142;5.364;2023-04-07T13:58:41;11.50;73.00
69595;DHT22;56800;52.142;5.364;2023-04-07T14:01:07;11.50;72.90
69595;DHT22;56800;52.142;5.364;2023-04-07T14:03:34;11.50;73.00
69595;DHT22;56800;52.142;5.364;2023-04-07T14:06:01;11.50;73.00
69595;DHT22;56800;52.142;5.364;2023-04-07T14:08:28;11.50;73.10
69595;DHT22;56800;52.142;5.364;2023-04-07T14:10:55;11.50;73.10
69595;DHT22;56800;52.142;5.364;2023-04-07T14:13:21;11.50;72.90
69595;DHT22;56800;52.142;5.364;2023-04-07T14:15:49;11.60;72.90
69595;DHT22;56800;52.142;5.364;2023-04-07T14:18:15;11.60;72.90
69595;DHT22;56800;52.142;5.364;2023-04-07T14:20:43;11.60;72.80
69595;DHT22;56800;52.142;5.364;2023-04-07T14:23:09;11.60;72.90
69595;DHT22;56800;52.142;5.364;2023-04-07T14:25:37;11.60;72.90
69595;DHT22;56800;52.142;5.364;2023-04-07T14:28:03;11.60;72.90
69595;DHT22;56800;52.142;5.364;2023-04-07T14:30:30;11.70;72.90
69595;DHT22;56800;52.142;5.364;2023-04-07T14:32:57;11.70;72.90
69595;DHT22;56800;52.142;5.364;2023-04-07T14:35:24;11.70;72.80
69595;DHT22;56800;52.142;5.364;2023-04-07T14:37:50;11.70;72.70
69595;DHT22;56800;52.142;5.364;2023-04-07T14:40:17;11.60;72.50
69595;DHT22;56800;52.142;5.364;2023-04-07T14:42:47;11.60;72.50
69595;DHT22;56800;52.142;5.364;2023-04-07T14:45:15;11.60;72.60
69595;DHT22;56800;52.142;5.364;2023-04-07T14:47:43;11.50;72.50
69595;DHT22;56800;52.142;5.364;2023-04-07T14:50:10;11.50;72.60
69595;DHT22;56800;52.142;5.364;2023-04-07T14:52:36;11.50;72.70
69595;DHT22;56800;52.142;5.364;2023-04-07T14:55:06;11.50;72.70
69595;DHT22;56800;52.142;5.364;2023-04-07T14:57:33;11.40;72.70
69595;DHT22;56800;52.142;5.364;2023-04-07T15:00:01;11.40;72.70
69595;DHT22;56800;52.142;5.364;2023-04-07T15:02:28;11.40;72.70
69595;DHT22;56800;52.142;5.364;2023-04-07T15:04:58;11.40;72.70
69595;DHT22;56800;52.142;5.364;2023-04-07T15:07:25;11.40;72.80
69595;DHT22;56800;52.142;5.364;2023-04-07T15:09:52;11.40;72.90
69595;DHT22;56800;52.142;5.364;2023-04-07T15:12:19;11.30;72.90
69595;DHT22;56800;52.142;5.364;2023-04-07T15:14:49;11.30;73.10
69595;DHT22;56800;52.142;5.364;2023-04-07T15:17:16;11.30;73.20
69595;DHT22;56800;52.142;5.364;2023-04-07T15:19:42;11.30;73.40
69595;DHT22;56800;52.142;5.364;2023-04-07T15:22:09;11.20;73.50
69595;DHT22;56800;52.142;5.364;2023-04-07T15:24:36;11.20;73.70
69595;DHT22;56800;52.142;5.364;2023-04-07T15:27:02;11.20;73.90
69595;DHT22;56800;52.142;5.364;2023-04-07T15:29:29;11.10;74.80
69595;DHT22;56800;52.142;5.364;2023-04-07T15:31:56;11.10;74.20
69595;DHT22;56800;52.142;5.364;2023-04-07T15:34:23;11.10;74.30
69595;DHT22;56800;52.142;5.364;2023-04-07T15:36:49;11.10;74.40
69595;DHT22;56800;52.142;5.364;2023-04-07T15:39:16;11.10;74.60
69595;DHT22;56800;52.142;5.364;2023-04-07T15:41:43;11.10;74.50
69595;DHT22;56800;52.142;5.364;2023-04-07T15:44:16;11.00;74.60
69595;DHT22;56800;52.142;5.364;2023-04-07T15:46:44;11.00;74.90
69595;DHT22;56800;52.142;5.364;2023-04-07T15:49:10;11.00;75.00
69595;DHT22;56800;52.142;5.364;2023-04-07T15:51:37;11.00;75.00
69595;DHT22;56800;52.142;5.364;2023-04-07T15:54:03;10.90;75.00
69595;DHT22;56800;52.142;5.364;2023-04-07T15:56:30;10.90;75.20
69595;DHT22;56800;52.142;5.364;2023-04-07T15:58:57;10.90;75.30
69595;DHT22;56800;52.142;5.364;2023-04-07T16:01:24;10.90;75.30
69595;DHT22;56800;52.142;5.364;2023-04-07T16:03:51;10.90;75.50
69595;DHT22;56800;52.142;5.364;2023-04-07T16:06:18;10.80;75.40
69595;DHT22;56800;52.142;5.364;2023-04-07T16:08:45;10.90;75.70